sensor_id;sensor_type;location;lat;lon;timestamp;P1;durP1;ratioP1;P2;durP2;ratioP2
69892;SDS011;61212;42.688;22.176;2022-07-11T00:02:25;4.43;;;2.80;;
69892;SDS011;61212;42.688;22.176;2022-07-11T00:04:50;8.52;;;2.75;;
69892;SDS011;61212;42.688;22.176;2022-07-11T00:07:17;17.92;;;3.85;;
69892;SDS011;61212;42.688;22.176;2022-07-11T00:09:43;7.72;;;2.65;;
69892;SDS011;61212;42.688;22.176;2022-07-11T00:12:09;13.38;;;3.03;;
69892;SDS011;61212;42.688;22.176;2022-07-11T00:14:35;7.65;;;2.55;;
69892;SDS011;61212;42.688;22.176;2022-07-11T00:17:04;7.72;;;2.58;;
69892;SDS011;61212;42.688;22.176;2022-07-11T00:19:31;7.55;;;2.55;;
69892;SDS011;61212;42.688;22.176;2022-07-11T00:21:57;9.27;;;2.95;;
69892;SDS011;61212;42.688;22.176;2022-07-11T00:24:23;7.32;;;2.45;;
69892;SDS011;61212;42.688;22.176;2022-07-11T00:26:50;8.48;;;2.80;;
69892;SDS011;61212;42.688;22.176;2022-07-11T00:29:16;13.25;;;3.50;;
69892;SDS011;61212;42.688;22.176;2022-07-11T00:31:42;11.75;;;3.65;;
69892;SDS011;61212;42.688;22.176;2022-07-11T00:34:09;6.95;;;3.05;;
69892;SDS011;61212;42.688;22.176;2022-07-11T00:36:35;13.15;;;3.00;;
69892;SDS011;61212;42.688;22.176;2022-07-11T00:39:01;10.30;;;3.15;;
69892;SDS011;61212;42.688;22.176;2022-07-11T00:41:27;10.38;;;2.80;;
69892;SDS011;61212;42.688;22.176;2022-07-11T00:43:54;5.15;;;2.92;;
69892;SDS011;61212;42.688;22.176;2022-07-11T00:46:21;9.98;;;3.75;;
69892;SDS011;61212;42.688;22.176;2022-07-11T00:48:47;4.60;;;2.88;;
69892;SDS011;61212;42.688;22.176;2022-07-11T00:51:14;6.53;;;2.90;;
69892;SDS011;61212;42.688;22.176;2022-07-11T00:53:41;4.93;;;2.38;;
69892;SDS011;61212;42.688;22.176;2022-07-11T00:56:07;8.02;;;2.53;;
69892;SDS011;61212;42.688;22.176;2022-07-11T00:58:34;12.23;;;2.70;;
69892;SDS011;61212;42.688;22.176;2022-07-11T01:01:01;3.70;;;2.20;;
69892;SDS011;61212;42.688;22.176;2022-07-11T01:03:27;5.10;;;2.42;;
69892;SDS011;61212;42.688;22.176;2022-07-11T01:05:53;7.80;;;2.50;;
69892;SDS011;61212;42.688;22.176;2022-07-11T01:08:20;8.35;;;4.72;;
69892;SDS011;61212;42.688;22.176;2022-07-11T01:10:46;7.20;;;3.13;;
69892;SDS011;61212;42.688;22.176;2022-07-11T01:13:12;3.67;;;2.25;;
69892;SDS011;61212;42.688;22.176;2022-07-11T01:15:38;9.05;;;3.50;;
69892;SDS011;61212;42.688;22.176;2022-07-11T01:18:05;5.25;;;2.97;;
69892;SDS011;61212;42.688;22.176;2022-07-11T01:20:31;8.23;;;3.35;;
69892;SDS011;61212;42.688;22.176;2022-07-11T01:23:03;15.88;;;3.00;;
69892;SDS011;61212;42.688;22.176;2022-07-11T01:25:31;4.63;;;2.40;;
69892;SDS011;61212;42.688;22.176;2022-07-11T01:28:04;8.88;;;3.13;;
69892;SDS011;61212;42.688;22.176;2022-07-11T01:30:32;7.05;;;2.97;;
69892;SDS011;61212;42.688;22.176;2022-07-11T01:32:58;5.00;;;2.72;;
69892;SDS011;61212;42.688;22.176;2022-07-11T01:35:25;8.05;;;2.40;;
69892;SDS011;61212;42.688;22.176;2022-07-11T01:37:51;9.75;;;2.70;;
69892;SDS011;61212;42.688;22.176;2022-07-11T01:40:17;6.20;;;2.92;;
69892;SDS011;61212;42.688;22.176;2022-07-11T01:42:43;6.93;;;2.55;;
69892;SDS011;61212;42.688;22.176;2022-07-11T01:45:09;7.53;;;3.20;;
69892;SDS011;61212;42.688;22.176;2022-07-11T01:47:36;6.18;;;3.42;;
69892;SDS011;61212;42.688;22.176;2022-07-11T01:50:02;9.55;;;2.88;;
69892;SDS011;61212;42.688;22.176;2022-07-11T01:52:29;14.43;;;3.63;;
69892;SDS011;61212;42.688;22.176;2022-07-11T01:54:55;11.07;;;2.65;;
69892;SDS011;61212;42.688;22.176;2022-07-11T01:57:21;7.18;;;2.92;;
69892;SDS011;61212;42.688;22.176;2022-07-11T01:59:47;9.65;;;3.80;;
69892;SDS011;61212;42.688;22.176;2022-07-11T02:02:14;8.23;;;2.67;;
69892;SDS011;61212;42.688;22.176;2022-07-11T02:04:40;10.68;;;2.95;;
69892;SDS011;61212;42.688;22.176;2022-07-11T02:07:06;6.85;;;2.95;;
69892;SDS011;61212;42.688;22.176;2022-07-11T02:09:33;6.95;;;2.80;;
69892;SDS011;61212;42.688;22.176;2022-07-11T02:11:59;6.78;;;3.63;;
69892;SDS011;61212;42.688;22.176;2022-07-11T02:14:25;6.63;;;3.47;;
69892;SDS011;61212;42.688;22.176;2022-07-11T02:16:51;8.02;;;3.33;;
69892;SDS011;61212;42.688;22.176;2022-07-11T02:19:17;4.65;;;2.55;;
69892;SDS011;61212;42.688;22.176;2022-07-11T02:21:43;12.38;;;2.90;;
69892;SDS011;61212;42.688;22.176;2022-07-11T02:24:09;6.80;;;3.50;;
69892;SDS011;61212;42.688;22.176;2022-07-11T02:26:35;8.90;;;3.13;;
69892;SDS011;61212;42.688;22.176;2022-07-11T02:29:02;7.60;;;2.85;;
69892;SDS011;61212;42.688;22.176;2022-07-11T02:31:28;11.38;;;3.13;;
69892;SDS011;61212;42.688;22.176;2022-07-11T02:33:54;6.10;;;2.70;;
69892;SDS011;61212;42.688;22.176;2022-07-11T02:36:20;6.00;;;2.60;;
69892;SDS011;61212;42.688;22.176;2022-07-11T02:38:46;5.90;;;2.78;;
69892;SDS011;61212;42.688;22.176;2022-07-11T02:41:12;4.78;;;2.80;;
69892;SDS011;61212;42.688;22.176;2022-07-11T02:43:38;5.20;;;3.08;;
69892;SDS011;61212;42.688;22.176;2022-07-11T02:46:04;10.73;;;3.63;;
69892;SDS011;61212;42.688;22.176;2022-07-11T02:48:30;12.20;;;2.83;;
69892;SDS011;61212;42.688;22.176;2022-07-11T02:50:57;5.80;;;2.75;;
69892;SDS011;61212;42.688;22.176;2022-07-11T02:53:23;4.78;;;2.72;;
69892;SDS011;61212;42.688;22.176;2022-07-11T02:55:49;8.90;;;2.78;;
69892;SDS011;61212;42.688;22.176;2022-07-11T02:58:15;5.05;;;3.13;;
69892;SDS011;61212;42.688;22.176;2022-07-11T03:00:41;10.02;;;3.40;;
69892;SDS011;61212;42.688;22.176;2022-07-11T03:03:07;7.72;;;2.97;;
69892;SDS011;61212;42.688;22.176;2022-07-11T03:05:46;11.82;;;3.30;;
69892;SDS011;61212;42.688;22.176;2022-07-11T03:08:12;5.50;;;2.97;;
69892;SDS011;61212;42.688;22.176;2022-07-11T03:10:38;6.45;;;2.63;;
69892;SDS011;61212;42.688;22.176;2022-07-11T03:13:04;13.40;;;2.67;;
69892;SDS011;61212;42.688;22.176;2022-07-11T03:15:30;9.63;;;2.55;;
69892;SDS011;61212;42.688;22.176;2022-07-11T03:17:56;4.85;;;2.95;;
69892;SDS011;61212;42.688;22.176;2022-07-11T03:20:22;7.30;;;3.15;;
69892;SDS011;61212;42.688;22.176;2022-07-11T03:22:48;6.45;;;2.60;;
69892;SDS011;61212;42.688;22.176;2022-07-11T03:25:15;8.75;;;2.50;;
69892;SDS011;61212;42.688;22.176;2022-07-11T03:27:41;5.95;;;2.75;;
69892;SDS011;61212;42.688;22.176;2022-07-11T03:30:07;3.38;;;1.83;;
69892;SDS011;61212;42.688;22.176;2022-07-11T03:32:33;5.13;;;1.83;;
69892;SDS011;61212;42.688;22.176;2022-07-11T03:35:00;5.15;;;1.60;;
69892;SDS011;61212;42.688;22.176;2022-07-11T03:37:44;4.05;;;1.65;;
69892;SDS011;61212;42.688;22.176;2022-07-11T03:40:11;7.47;;;1.40;;
69892;SDS011;61212;42.688;22.176;2022-07-11T03:42:37;5.13;;;1.50;;
69892;SDS011;61212;42.688;22.176;2022-07-11T03:45:03;3.95;;;1.25;;
69892;SDS011;61212;42.688;22.176;2022-07-11T03:47:29;4.82;;;0.90;;
69892;SDS011;61212;42.688;22.176;2022-07-11T03:49:57;4.88;;;1.67;;
69892;SDS011;61212;42.688;22.176;2022-07-11T03:52:23;4.60;;;1.38;;
69892;SDS011;61212;42.688;22.176;2022-07-11T03:54:49;5.55;;;1.42;;
69892;SDS011;61212;42.688;22.176;2022-07-11T03:57:15;1.83;;;1.02;;
69892;SDS011;61212;42.688;22.176;2022-07-11T03:59:41;2.72;;;1.20;;
69892;SDS011;61212;42.688;22.176;2022-07-11T04:02:07;2.95;;;1.27;;
69892;SDS011;61212;42.688;22.176;2022-07-11T04:04:34;5.03;;;1.10;;
69892;SDS011;61212;42.688;22.176;2022-07-11T04:07:03;3.15;;;1.10;;
69892;SDS011;61212;42.688;22.176;2022-07-11T04:09:29;7.72;;;1.20;;
69892;SDS011;61212;42.688;22.176;2022-07-11T04:11:56;4.18;;;1.02;;
69892;SDS011;61212;42.688;22.176;2022-07-11T04:14:22;7.97;;;0.88;;
69892;SDS011;61212;42.688;22.176;2022-07-11T04:16:47;5.80;;;1.40;;
69892;SDS011;61212;42.688;22.176;2022-07-11T04:19:13;5.28;;;1.10;;
69892;SDS011;61212;42.688;22.176;2022-07-11T04:21:39;7.95;;;1.52;;
69892;SDS011;61212;42.688;22.176;2022-07-11T04:24:04;6.05;;;1.38;;
69892;SDS011;61212;42.688;22.176;2022-07-11T04:26:30;5.78;;;1.02;;
69892;SDS011;61212;42.688;22.176;2022-07-11T04:28:56;4.13;;;1.00;;
69892;SDS011;61212;42.688;22.176;2022-07-11T04:31:22;2.78;;;0.90;;
69892;SDS011;61212;42.688;22.176;2022-07-11T04:33:48;2.70;;;0.90;;
69892;SDS011;61212;42.688;22.176;2022-07-11T04:36:13;5.85;;;1.00;;
69892;SDS011;61212;42.688;22.176;2022-07-11T04:38:39;8.75;;;1.10;;
69892;SDS011;61212;42.688;22.176;2022-07-11T04:41:08;8.45;;;1.05;;
69892;SDS011;61212;42.688;22.176;2022-07-11T04:43:34;4.60;;;1.10;;
69892;SDS011;61212;42.688;22.176;2022-07-11T04:46:02;8.52;;;1.13;;
69892;SDS011;61212;42.688;22.176;2022-07-11T04:48:30;2.38;;;0.90;;
69892;SDS011;61212;42.688;22.176;2022-07-11T04:50:56;4.28;;;0.90;;
69892;SDS011;61212;42.688;22.176;2022-07-11T04:53:23;4.22;;;1.00;;
69892;SDS011;61212;42.688;22.176;2022-07-11T04:55:49;5.00;;;1.27;;
69892;SDS011;61212;42.688;22.176;2022-07-11T04:58:15;2.67;;;0.82;;
69892;SDS011;61212;42.688;22.176;2022-07-11T05:00:41;7.32;;;1.15;;
69892;SDS011;61212;42.688;22.176;2022-07-11T05:03:07;5.03;;;0.70;;
69892;SDS011;61212;42.688;22.176;2022-07-11T05:05:33;5.25;;;0.77;;
69892;SDS011;61212;42.688;22.176;2022-07-11T05:07:59;4.55;;;0.90;;
69892;SDS011;61212;42.688;22.176;2022-07-11T05:10:25;5.05;;;1.10;;
69892;SDS011;61212;42.688;22.176;2022-07-11T05:12:52;1.15;;;0.50;;
69892;SDS011;61212;42.688;22.176;2022-07-11T05:15:18;4.82;;;1.02;;
69892;SDS011;61212;42.688;22.176;2022-07-11T05:17:44;5.43;;;0.70;;
69892;SDS011;61212;42.688;22.176;2022-07-11T05:20:10;3.00;;;1.02;;
69892;SDS011;61212;42.688;22.176;2022-07-11T05:22:36;4.90;;;1.10;;
69892;SDS011;61212;42.688;22.176;2022-07-11T05:25:02;7.22;;;1.20;;
69892;SDS011;61212;42.688;22.176;2022-07-11T05:27:28;8.02;;;1.35;;
69892;SDS011;61212;42.688;22.176;2022-07-11T05:29:54;1.48;;;0.68;;
69892;SDS011;61212;42.688;22.176;2022-07-11T05:32:20;4.65;;;1.25;;
69892;SDS011;61212;42.688;22.176;2022-07-11T05:34:47;4.70;;;0.70;;
69892;SDS011;61212;42.688;22.176;2022-07-11T05:37:13;2.13;;;0.60;;
69892;SDS011;61212;42.688;22.176;2022-07-11T05:39:39;3.80;;;0.85;;
69892;SDS011;61212;42.688;22.176;2022-07-11T05:42:05;2.85;;;1.08;;
69892;SDS011;61212;42.688;22.176;2022-07-11T05:44:31;3.58;;;1.00;;
69892;SDS011;61212;42.688;22.176;2022-07-11T05:47:00;5.45;;;0.60;;
69892;SDS011;61212;42.688;22.176;2022-07-11T05:49:27;1.85;;;0.80;;
69892;SDS011;61212;42.688;22.176;2022-07-11T05:51:53;12.15;;;0.95;;
69892;SDS011;61212;42.688;22.176;2022-07-11T05:54:19;3.35;;;0.75;;
69892;SDS011;61212;42.688;22.176;2022-07-11T05:56:45;3.72;;;0.55;;
69892;SDS011;61212;42.688;22.176;2022-07-11T05:59:12;2.40;;;0.90;;
69892;SDS011;61212;42.688;22.176;2022-07-11T06:01:39;4.78;;;0.90;;
69892;SDS011;61212;42.688;22.176;2022-07-11T06:04:05;2.78;;;0.75;;
69892;SDS011;61212;42.688;22.176;2022-07-11T06:06:31;6.85;;;0.90;;
69892;SDS011;61212;42.688;22.176;2022-07-11T06:08:58;7.15;;;2.50;;
69892;SDS011;61212;42.688;22.176;2022-07-11T06:11:24;5.45;;;0.90;;
69892;SDS011;61212;42.688;22.176;2022-07-11T06:13:50;3.88;;;0.82;;
69892;SDS011;61212;42.688;22.176;2022-07-11T06:16:17;3.58;;;0.75;;
69892;SDS011;61212;42.688;22.176;2022-07-11T06:18:43;2.80;;;1.02;;
69892;SDS011;61212;42.688;22.176;2022-07-11T06:21:25;5.18;;;0.90;;
69892;SDS011;61212;42.688;22.176;2022-07-11T06:23:52;2.72;;;0.88;;
69892;SDS011;61212;42.688;22.176;2022-07-11T06:26:19;2.03;;;0.98;;
69892;SDS011;61212;42.688;22.176;2022-07-11T06:28:45;4.13;;;0.85;;
69892;SDS011;61212;42.688;22.176;2022-07-11T06:31:12;2.88;;;0.68;;
69892;SDS011;61212;42.688;22.176;2022-07-11T06:33:38;3.35;;;1.00;;
69892;SDS011;61212;42.688;22.176;2022-07-11T06:36:05;1.35;;;0.95;;
69892;SDS011;61212;42.688;22.176;2022-07-11T06:38:31;3.65;;;0.80;;
69892;SDS011;61212;42.688;22.176;2022-07-11T06:40:58;4.38;;;1.08;;
69892;SDS011;61212;42.688;22.176;2022-07-11T06:43:24;3.72;;;0.60;;
69892;SDS011;61212;42.688;22.176;2022-07-11T06:45:50;5.30;;;1.17;;
69892;SDS011;61212;42.688;22.176;2022-07-11T06:48:17;3.75;;;1.02;;
69892;SDS011;61212;42.688;22.176;2022-07-11T06:50:43;2.47;;;0.95;;
69892;SDS011;61212;42.688;22.176;2022-07-11T06:53:08;1.73;;;0.90;;
69892;SDS011;61212;42.688;22.176;2022-07-11T06:55:35;2.65;;;0.77;;
69892;SDS011;61212;42.688;22.176;2022-07-11T06:58:01;3.92;;;0.60;;
69892;SDS011;61212;42.688;22.176;2022-07-11T07:00:27;3.80;;;0.70;;
69892;SDS011;61212;42.688;22.176;2022-07-11T07:02:54;6.15;;;0.60;;
69892;SDS011;61212;42.688;22.176;2022-07-11T07:05:22;2.58;;;0.75;;
69892;SDS011;61212;42.688;22.176;2022-07-11T07:07:48;1.58;;;0.60;;
69892;SDS011;61212;42.688;22.176;2022-07-11T07:10:14;4.22;;;1.00;;
69892;SDS011;61212;42.688;22.176;2022-07-11T07:12:40;1.77;;;0.63;;
69892;SDS011;61212;42.688;22.176;2022-07-11T07:15:06;2.88;;;0.85;;
69892;SDS011;61212;42.688;22.176;2022-07-11T07:17:34;4.85;;;1.45;;
69892;SDS011;61212;42.688;22.176;2022-07-11T07:20:00;3.78;;;0.70;;
69892;SDS011;61212;42.688;22.176;2022-07-11T07:25:30;2.25;;;0.60;;
69892;SDS011;61212;42.688;22.176;2022-07-11T07:27:56;5.22;;;0.90;;
69892;SDS011;61212;42.688;22.176;2022-07-11T07:30:22;3.13;;;0.68;;
69892;SDS011;61212;42.688;22.176;2022-07-11T07:32:48;2.67;;;0.80;;
69892;SDS011;61212;42.688;22.176;2022-07-11T07:35:14;2.95;;;0.98;;
69892;SDS011;61212;42.688;22.176;2022-07-11T07:37:40;4.40;;;1.30;;
69892;SDS011;61212;42.688;22.176;2022-07-11T07:40:06;2.30;;;0.80;;
69892;SDS011;61212;42.688;22.176;2022-07-11T07:42:32;7.60;;;0.80;;
69892;SDS011;61212;42.688;22.176;2022-07-11T07:44:58;4.22;;;0.93;;
69892;SDS011;61212;42.688;22.176;2022-07-11T07:47:24;6.82;;;0.90;;
69892;SDS011;61212;42.688;22.176;2022-07-11T07:49:50;3.58;;;0.70;;
69892;SDS011;61212;42.688;22.176;2022-07-11T07:52:16;3.28;;;0.70;;
69892;SDS011;61212;42.688;22.176;2022-07-11T07:54:42;2.40;;;1.00;;
69892;SDS011;61212;42.688;22.176;2022-07-11T07:57:08;6.80;;;0.90;;
69892;SDS011;61212;42.688;22.176;2022-07-11T07:59:34;3.63;;;0.90;;
69892;SDS011;61212;42.688;22.176;2022-07-11T08:02:00;2.50;;;0.73;;
69892;SDS011;61212;42.688;22.176;2022-07-11T08:04:25;3.75;;;0.90;;
69892;SDS011;61212;42.688;22.176;2022-07-11T08:06:51;3.42;;;0.85;;
69892;SDS011;61212;42.688;22.176;2022-07-11T08:09:17;5.00;;;1.48;;
69892;SDS011;61212;42.688;22.176;2022-07-11T08:11:43;4.82;;;1.58;;
69892;SDS011;61212;42.688;22.176;2022-07-11T08:14:08;0.98;;;0.45;;
69892;SDS011;61212;42.688;22.176;2022-07-11T08:16:35;4.50;;;0.70;;
69892;SDS011;61212;42.688;22.176;2022-07-11T08:19:02;4.55;;;2.42;;
69892;SDS011;61212;42.688;22.176;2022-07-11T08:21:31;5.13;;;1.35;;
69892;SDS011;61212;42.688;22.176;2022-07-11T08:23:57;4.60;;;0.63;;
69892;SDS011;61212;42.688;22.176;2022-07-11T08:26:23;5.03;;;0.70;;
69892;SDS011;61212;42.688;22.176;2022-07-11T08:28:49;2.85;;;0.80;;
69892;SDS011;61212;42.688;22.176;2022-07-11T08:31:17;6.25;;;1.15;;
69892;SDS011;61212;42.688;22.176;2022-07-11T08:33:43;5.88;;;0.68;;
69892;SDS011;61212;42.688;22.176;2022-07-11T08:36:09;3.05;;;0.60;;
69892;SDS011;61212;42.688;22.176;2022-07-11T08:38:36;2.80;;;1.10;;
69892;SDS011;61212;42.688;22.176;2022-07-11T08:41:04;3.20;;;0.98;;
69892;SDS011;61212;42.688;22.176;2022-07-11T08:43:30;5.70;;;1.20;;
69892;SDS011;61212;42.688;22.176;2022-07-11T08:45:58;2.00;;;0.90;;
69892;SDS011;61212;42.688;22.176;2022-07-11T08:48:25;4.40;;;1.10;;
69892;SDS011;61212;42.688;22.176;2022-07-11T08:50:52;5.50;;;0.88;;
69892;SDS011;61212;42.688;22.176;2022-07-11T08:53:18;1.65;;;0.60;;
69892;SDS011;61212;42.688;22.176;2022-07-11T08:55:44;1.63;;;0.50;;
69892;SDS011;61212;42.688;22.176;2022-07-11T08:58:10;2.78;;;0.55;;
69892;SDS011;61212;42.688;22.176;2022-07-11T09:00:36;9.05;;;0.60;;
69892;SDS011;61212;42.688;22.176;2022-07-11T09:03:03;4.93;;;0.60;;
69892;SDS011;61212;42.688;22.176;2022-07-11T09:05:31;1.92;;;0.65;;
69892;SDS011;61212;42.688;22.176;2022-07-11T09:07:57;0.88;;;0.40;;
69892;SDS011;61212;42.688;22.176;2022-07-11T09:10:23;0.93;;;0.43;;
69892;SDS011;61212;42.688;22.176;2022-07-11T09:13:05;2.83;;;0.40;;
69892;SDS011;61212;42.688;22.176;2022-07-11T09:18:30;2.45;;;0.50;;
69892;SDS011;61212;42.688;22.176;2022-07-11T09:24:06;8.98;;;1.38;;
69892;SDS011;61212;42.688;22.176;2022-07-11T09:26:51;5.97;;;0.85;;
69892;SDS011;61212;42.688;22.176;2022-07-11T09:29:18;4.47;;;1.95;;
69892;SDS011;61212;42.688;22.176;2022-07-11T09:31:46;3.60;;;1.10;;
69892;SDS011;61212;42.688;22.176;2022-07-11T09:36:42;5.63;;;1.42;;
69892;SDS011;61212;42.688;22.176;2022-07-11T09:39:10;3.75;;;0.45;;
69892;SDS011;61212;42.688;22.176;2022-07-11T09:41:36;3.95;;;0.52;;
69892;SDS011;61212;42.688;22.176;2022-07-11T09:46:32;4.18;;;0.80;;
69892;SDS011;61212;42.688;22.176;2022-07-11T09:49:01;6.10;;;0.80;;
69892;SDS011;61212;42.688;22.176;2022-07-11T09:51:46;3.88;;;0.65;;
69892;SDS011;61212;42.688;22.176;2022-07-11T09:54:12;1.92;;;0.38;;
69892;SDS011;61212;42.688;22.176;2022-07-11T09:56:39;3.25;;;0.38;;
69892;SDS011;61212;42.688;22.176;2022-07-11T09:59:06;1.73;;;0.45;;
69892;SDS011;61212;42.688;22.176;2022-07-11T10:01:33;3.95;;;0.50;;
69892;SDS011;61212;42.688;22.176;2022-07-11T10:03:59;2.47;;;0.90;;
69892;SDS011;61212;42.688;22.176;2022-07-11T10:06:25;4.22;;;0.60;;
69892;SDS011;61212;42.688;22.176;2022-07-11T10:08:52;2.47;;;0.50;;
69892;SDS011;61212;42.688;22.176;2022-07-11T10:11:19;2.95;;;0.45;;
69892;SDS011;61212;42.688;22.176;2022-07-11T10:13:45;2.15;;;0.80;;
69892;SDS011;61212;42.688;22.176;2022-07-11T10:16:22;1.95;;;0.52;;
69892;SDS011;61212;42.688;22.176;2022-07-11T10:21:42;9.07;;;0.88;;
69892;SDS011;61212;42.688;22.176;2022-07-11T10:24:33;3.50;;;0.90;;
69892;SDS011;61212;42.688;22.176;2022-07-11T10:29:57;1.63;;;0.75;;
69892;SDS011;61212;42.688;22.176;2022-07-11T10:32:23;5.60;;;0.85;;
69892;SDS011;61212;42.688;22.176;2022-07-11T10:35:10;3.30;;;0.60;;
69892;SDS011;61212;42.688;22.176;2022-07-11T10:37:51;6.43;;;1.05;;
69892;SDS011;61212;42.688;22.176;2022-07-11T10:43:08;10.93;;;0.73;;
69892;SDS011;61212;42.688;22.176;2022-07-11T10:57:27;2.38;;;0.60;;
69892;SDS011;61212;42.688;22.176;2022-07-11T11:00:01;7.68;;;0.60;;
69892;SDS011;61212;42.688;22.176;2022-07-11T11:02:30;4.63;;;0.60;;
69892;SDS011;61212;42.688;22.176;2022-07-11T11:04:57;4.32;;;0.80;;
69892;SDS011;61212;42.688;22.176;2022-07-11T11:23:39;3.08;;;1.08;;
69892;SDS011;61212;42.688;22.176;2022-07-11T11:28:32;2.83;;;0.60;;
69892;SDS011;61212;42.688;22.176;2022-07-11T11:30:59;3.97;;;0.50;;
69892;SDS011;61212;42.688;22.176;2022-07-11T11:33:28;4.78;;;0.70;;
69892;SDS011;61212;42.688;22.176;2022-07-11T11:36:05;2.90;;;0.70;;
69892;SDS011;61212;42.688;22.176;2022-07-11T11:38:38;2.33;;;0.80;;
69892;SDS011;61212;42.688;22.176;2022-07-11T11:41:05;2.13;;;0.73;;
69892;SDS011;61212;42.688;22.176;2022-07-11T11:43:33;4.47;;;0.68;;
69892;SDS011;61212;42.688;22.176;2022-07-11T11:46:00;3.63;;;0.90;;
69892;SDS011;61212;42.688;22.176;2022-07-11T11:51:03;6.40;;;0.75;;
69892;SDS011;61212;42.688;22.176;2022-07-11T11:53:44;1.25;;;0.60;;
69892;SDS011;61212;42.688;22.176;2022-07-11T11:59:03;2.30;;;0.88;;
69892;SDS011;61212;42.688;22.176;2022-07-11T12:03:56;5.90;;;1.23;;
69892;SDS011;61212;42.688;22.176;2022-07-11T12:06:27;4.55;;;0.90;;
69892;SDS011;61212;42.688;22.176;2022-07-11T12:08:59;2.47;;;0.65;;
69892;SDS011;61212;42.688;22.176;2022-07-11T12:11:25;3.67;;;0.60;;
69892;SDS011;61212;42.688;22.176;2022-07-11T12:14:00;2.60;;;0.82;;
69892;SDS011;61212;42.688;22.176;2022-07-11T12:16:28;6.55;;;0.90;;
69892;SDS011;61212;42.688;22.176;2022-07-11T12:19:14;1.88;;;0.75;;
69892;SDS011;61212;42.688;22.176;2022-07-11T12:22:03;2.33;;;0.63;;
69892;SDS011;61212;42.688;22.176;2022-07-11T12:24:30;3.03;;;0.70;;
69892;SDS011;61212;42.688;22.176;2022-07-11T12:26:57;1.98;;;0.45;;
69892;SDS011;61212;42.688;22.176;2022-07-11T12:29:24;3.45;;;0.73;;
69892;SDS011;61212;42.688;22.176;2022-07-11T12:31:53;1.65;;;0.63;;
69892;SDS011;61212;42.688;22.176;2022-07-11T12:37:11;7.05;;;0.68;;
69892;SDS011;61212;42.688;22.176;2022-07-11T12:42:34;2.47;;;0.75;;
69892;SDS011;61212;42.688;22.176;2022-07-11T12:47:42;2.35;;;0.73;;
69892;SDS011;61212;42.688;22.176;2022-07-11T12:50:13;3.03;;;0.80;;
69892;SDS011;61212;42.688;22.176;2022-07-11T12:55:28;2.40;;;0.60;;
69892;SDS011;61212;42.688;22.176;2022-07-11T12:58:12;1.30;;;0.65;;
69892;SDS011;61212;42.688;22.176;2022-07-11T13:00:43;1.92;;;0.50;;
69892;SDS011;61212;42.688;22.176;2022-07-11T13:03:30;4.10;;;0.60;;
69892;SDS011;61212;42.688;22.176;2022-07-11T13:05:59;4.43;;;0.93;;
69892;SDS011;61212;42.688;22.176;2022-07-11T13:12:28;2.90;;;0.70;;
69892;SDS011;61212;42.688;22.176;2022-07-11T13:15:01;4.15;;;1.08;;
69892;SDS011;61212;42.688;22.176;2022-07-11T13:17:36;5.70;;;0.57;;
69892;SDS011;61212;42.688;22.176;2022-07-11T13:20:07;1.33;;;0.68;;
69892;SDS011;61212;42.688;22.176;2022-07-11T13:22:35;3.10;;;0.50;;
69892;SDS011;61212;42.688;22.176;2022-07-11T13:25:02;1.45;;;0.60;;
69892;SDS011;61212;42.688;22.176;2022-07-11T13:27:29;2.33;;;1.10;;
69892;SDS011;61212;42.688;22.176;2022-07-11T13:29:55;3.15;;;0.85;;
69892;SDS011;61212;42.688;22.176;2022-07-11T13:32:22;1.77;;;0.65;;
69892;SDS011;61212;42.688;22.176;2022-07-11T13:34:48;1.38;;;0.55;;
69892;SDS011;61212;42.688;22.176;2022-07-11T13:37:17;1.58;;;0.63;;
69892;SDS011;61212;42.688;22.176;2022-07-11T13:39:43;2.05;;;0.63;;
69892;SDS011;61212;42.688;22.176;2022-07-11T13:42:09;3.65;;;0.70;;
69892;SDS011;61212;42.688;22.176;2022-07-11T13:44:35;5.57;;;0.70;;
69892;SDS011;61212;42.688;22.176;2022-07-11T13:47:01;2.83;;;0.70;;
69892;SDS011;61212;42.688;22.176;2022-07-11T13:49:27;5.38;;;0.60;;
69892;SDS011;61212;42.688;22.176;2022-07-11T13:51:54;8.02;;;0.88;;
69892;SDS011;61212;42.688;22.176;2022-07-11T13:54:20;4.90;;;0.80;;
69892;SDS011;61212;42.688;22.176;2022-07-11T13:56:46;2.25;;;0.60;;
69892;SDS011;61212;42.688;22.176;2022-07-11T13:59:12;7.00;;;0.80;;
69892;SDS011;61212;42.688;22.176;2022-07-11T14:01:38;1.88;;;0.60;;
69892;SDS011;61212;42.688;22.176;2022-07-11T14:04:04;11.65;;;0.90;;
69892;SDS011;61212;42.688;22.176;2022-07-11T14:06:29;5.65;;;0.80;;
69892;SDS011;61212;42.688;22.176;2022-07-11T14:08:55;1.58;;;0.63;;
69892;SDS011;61212;42.688;22.176;2022-07-11T14:11:21;4.03;;;2.47;;
69892;SDS011;61212;42.688;22.176;2022-07-11T14:13:50;6.22;;;2.83;;
69892;SDS011;61212;42.688;22.176;2022-07-11T14:16:16;5.70;;;1.25;;
69892;SDS011;61212;42.688;22.176;2022-07-11T14:18:43;5.55;;;2.72;;
69892;SDS011;61212;42.688;22.176;2022-07-11T14:21:09;5.93;;;0.80;;
69892;SDS011;61212;42.688;22.176;2022-07-11T14:23:34;1.67;;;0.60;;
69892;SDS011;61212;42.688;22.176;2022-07-11T14:26:00;1.95;;;0.63;;
69892;SDS011;61212;42.688;22.176;2022-07-11T14:28:26;2.38;;;0.70;;
69892;SDS011;61212;42.688;22.176;2022-07-11T14:30:52;1.77;;;0.60;;
69892;SDS011;61212;42.688;22.176;2022-07-11T14:33:18;2.65;;;0.63;;
69892;SDS011;61212;42.688;22.176;2022-07-11T14:35:44;3.78;;;1.00;;
69892;SDS011;61212;42.688;22.176;2022-07-11T14:38:11;2.28;;;0.75;;
69892;SDS011;61212;42.688;22.176;2022-07-11T14:40:36;1.42;;;0.70;;
69892;SDS011;61212;42.688;22.176;2022-07-11T14:43:02;4.53;;;0.80;;
69892;SDS011;61212;42.688;22.176;2022-07-11T14:45:28;5.18;;;0.90;;
69892;SDS011;61212;42.688;22.176;2022-07-11T14:47:54;2.28;;;0.77;;
69892;SDS011;61212;42.688;22.176;2022-07-11T14:50:19;2.55;;;0.80;;
69892;SDS011;61212;42.688;22.176;2022-07-11T14:52:45;1.98;;;1.00;;
69892;SDS011;61212;42.688;22.176;2022-07-11T14:55:11;2.80;;;0.88;;
69892;SDS011;61212;42.688;22.176;2022-07-11T14:57:37;1.75;;;0.70;;
69892;SDS011;61212;42.688;22.176;2022-07-11T15:00:04;1.52;;;0.65;;
69892;SDS011;61212;42.688;22.176;2022-07-11T15:02:30;7.10;;;0.90;;
69892;SDS011;61212;42.688;22.176;2022-07-11T15:05:14;4.03;;;0.90;;
69892;SDS011;61212;42.688;22.176;2022-07-11T15:07:58;1.75;;;0.70;;
69892;SDS011;61212;42.688;22.176;2022-07-11T15:10:42;2.90;;;0.70;;
69892;SDS011;61212;42.688;22.176;2022-07-11T15:13:26;7.38;;;0.65;;
69892;SDS011;61212;42.688;22.176;2022-07-11T15:15:52;2.05;;;0.63;;
69892;SDS011;61212;42.688;22.176;2022-07-11T15:18:18;0.70;;;0.52;;
69892;SDS011;61212;42.688;22.176;2022-07-11T15:20:44;1.88;;;0.80;;
69892;SDS011;61212;42.688;22.176;2022-07-11T15:23:09;2.72;;;0.80;;
69892;SDS011;61212;42.688;22.176;2022-07-11T15:25:35;3.58;;;0.63;;
69892;SDS011;61212;42.688;22.176;2022-07-11T15:28:01;1.42;;;0.70;;
69892;SDS011;61212;42.688;22.176;2022-07-11T15:30:27;2.08;;;0.60;;
69892;SDS011;61212;42.688;22.176;2022-07-11T15:32:53;2.75;;;0.80;;
69892;SDS011;61212;42.688;22.176;2022-07-11T15:35:19;4.45;;;0.90;;
69892;SDS011;61212;42.688;22.176;2022-07-11T15:37:45;3.00;;;0.77;;
69892;SDS011;61212;42.688;22.176;2022-07-11T15:40:11;7.57;;;0.93;;
69892;SDS011;61212;42.688;22.176;2022-07-11T15:42:37;3.97;;;1.02;;
69892;SDS011;61212;42.688;22.176;2022-07-11T15:45:03;7.00;;;0.85;;
69892;SDS011;61212;42.688;22.176;2022-07-11T15:47:29;2.10;;;1.00;;
69892;SDS011;61212;42.688;22.176;2022-07-11T15:49:56;1.75;;;0.80;;
69892;SDS011;61212;42.688;22.176;2022-07-11T15:52:22;5.65;;;0.93;;